SAS79P ENGM-ENBR
Flight info
| Callsign | SAS79P |
|---|---|
| Flight time | 0h 39m |
| Altitude | 28000 |
| Route | ATLAP DCT AGEKU DCT PESUR |
| Aircraft | E195/M-SDE3GILORVW/S |
Departure
| Time | 2026-05-07 13:48 |
|---|---|
| Airport | Oslo-Gardermoen International Airport (ENGM) |
Arrival
| Time | 2026-05-07 14:27 |
|---|---|
| Airport | Bergen Airport, Flesland (ENBR) |
| Time | Latitude | Longitude | Altitude | Speed | Heading |
|---|---|---|---|---|---|
| 2026-05-07 13:29 | 60.19593 | 11.09930 | 687 ft | 0 kts | 105° |
| 2026-05-07 13:38 | 60.19595 | 11.09916 | 687 ft | 2 kts | 104° |
| 2026-05-07 13:38 | 60.19599 | 11.09886 | 687 ft | 2 kts | 106° |
| 2026-05-07 13:39 | 60.19603 | 11.09858 | 687 ft | 2 kts | 105° |
| 2026-05-07 13:39 | 60.19606 | 11.09833 | 687 ft | 0 kts | 105° |
| 2026-05-07 13:39 | 60.19607 | 11.09832 | 687 ft | 0 kts | 105° |
| 2026-05-07 13:41 | 60.19606 | 11.09833 | 687 ft | 0 kts | 103° |
| 2026-05-07 13:42 | 60.19607 | 11.09836 | 687 ft | 0 kts | 82° |
| 2026-05-07 13:42 | 60.19610 | 11.09841 | 687 ft | 1 kts | 24° |
| 2026-05-07 13:42 | 60.19645 | 11.09839 | 687 ft | 8 kts | 354° |
| 2026-05-07 13:42 | 60.19732 | 11.09801 | 687 ft | 16 kts | 359° |
| 2026-05-07 13:43 | 60.19870 | 11.09859 | 687 ft | 22 kts | 16° |
| 2026-05-07 13:43 | 60.19977 | 11.09883 | 687 ft | 13 kts | 324° |
| 2026-05-07 13:43 | 60.20018 | 11.09695 | 687 ft | 16 kts | 286° |
| 2026-05-07 13:43 | 60.20054 | 11.09444 | 687 ft | 20 kts | 288° |
| 2026-05-07 13:44 | 60.20095 | 11.09139 | 687 ft | 24 kts | 284° |
| 2026-05-07 13:44 | 60.20150 | 11.08915 | 687 ft | 14 kts | 342° |
| 2026-05-07 13:44 | 60.20255 | 11.08950 | 687 ft | 17 kts | 16° |
| 2026-05-07 13:44 | 60.20382 | 11.09023 | 687 ft | 20 kts | 15° |
| 2026-05-07 13:45 | 60.20534 | 11.09110 | 687 ft | 24 kts | 16° |
| 2026-05-07 13:45 | 60.20708 | 11.09210 | 687 ft | 28 kts | 15° |
| 2026-05-07 13:45 | 60.20906 | 11.09325 | 687 ft | 30 kts | 16° |
| 2026-05-07 13:45 | 60.21112 | 11.09445 | 687 ft | 31 kts | 15° |
| 2026-05-07 13:46 | 60.21316 | 11.09563 | 687 ft | 28 kts | 16° |
| 2026-05-07 13:46 | 60.21479 | 11.09632 | 687 ft | 20 kts | 349° |
| 2026-05-07 13:46 | 60.21558 | 11.09431 | 687 ft | 19 kts | 285° |
| 2026-05-07 13:46 | 60.21556 | 11.09166 | 687 ft | 19 kts | 233° |
| 2026-05-07 13:47 | 60.21508 | 11.09109 | 687 ft | 0 kts | 194° |
| 2026-05-07 13:47 | 60.21440 | 11.09070 | 687 ft | 37 kts | 196° |
| 2026-05-07 13:47 | 60.20964 | 11.08795 | 687 ft | 104 kts | 196° |
| 2026-05-07 13:47 | 60.20074 | 11.08284 | 688 ft | 159 kts | 196° |
| 2026-05-07 13:48 | 60.18925 | 11.07635 | 973 ft | 181 kts | 195° |
| 2026-05-07 13:48 | 60.17704 | 11.06810 | 1565 ft | 190 kts | 214° |
| 2026-05-07 13:48 | 60.16871 | 11.04784 | 2256 ft | 198 kts | 244° |
| 2026-05-07 13:48 | 60.16344 | 11.02240 | 3079 ft | 204 kts | 247° |
| 2026-05-07 13:49 | 60.15630 | 10.99662 | 3698 ft | 223 kts | 234° |
| 2026-05-07 13:49 | 60.14624 | 10.97135 | 4223 ft | 249 kts | 232° |
| 2026-05-07 13:49 | 60.13972 | 10.93863 | 4876 ft | 265 kts | 265° |
| 2026-05-07 13:49 | 60.13898 | 10.90134 | 5842 ft | 271 kts | 268° |
| 2026-05-07 13:50 | 60.13811 | 10.86416 | 6935 ft | 272 kts | 268° |
| 2026-05-07 13:50 | 60.13842 | 10.82716 | 8041 ft | 270 kts | 272° |
| 2026-05-07 13:50 | 60.13898 | 10.79017 | 9095 ft | 270 kts | 272° |
| 2026-05-07 13:50 | 60.13947 | 10.75255 | 10101 ft | 271 kts | 272° |
| 2026-05-07 13:51 | 60.13982 | 10.71958 | 12194 ft | 220 kts | 272° |
| 2026-05-07 13:51 | 60.14006 | 10.69615 | 14215 ft | 152 kts | 272° |
| 2026-05-07 13:51 | 60.14026 | 10.67653 | 14571 ft | 167 kts | 273° |
| 2026-05-07 13:51 | 60.14041 | 10.64905 | 14169 ft | 220 kts | 270° |
| 2026-05-07 13:52 | 60.14020 | 10.61745 | 14461 ft | 240 kts | 274° |
| 2026-05-07 13:52 | 60.14088 | 10.58231 | 14621 ft | 270 kts | 272° |
| 2026-05-07 13:52 | 60.14141 | 10.54335 | 15225 ft | 281 kts | 272° |
| 2026-05-07 13:52 | 60.14185 | 10.50386 | 15840 ft | 293 kts | 272° |
| 2026-05-07 13:53 | 60.14224 | 10.46203 | 16547 ft | 301 kts | 272° |
| 2026-05-07 13:53 | 60.14259 | 10.42049 | 17398 ft | 303 kts | 272° |
| 2026-05-07 13:53 | 60.14293 | 10.37841 | 18215 ft | 305 kts | 272° |
| 2026-05-07 13:53 | 60.14325 | 10.33530 | 18859 ft | 314 kts | 271° |
| 2026-05-07 13:54 | 60.14357 | 10.29139 | 19568 ft | 320 kts | 271° |
| 2026-05-07 13:54 | 60.14387 | 10.24707 | 20333 ft | 323 kts | 271° |
| 2026-05-07 13:54 | 60.14416 | 10.20217 | 21159 ft | 326 kts | 271° |
| 2026-05-07 13:54 | 60.14444 | 10.15675 | 21985 ft | 327 kts | 271° |
| 2026-05-07 13:55 | 60.14470 | 10.11164 | 22734 ft | 329 kts | 271° |
| 2026-05-07 13:55 | 60.14496 | 10.06635 | 23452 ft | 332 kts | 271° |
| 2026-05-07 13:55 | 60.14520 | 10.01916 | 24161 ft | 336 kts | 271° |
| 2026-05-07 13:55 | 60.14542 | 9.97255 | 24897 ft | 337 kts | 272° |
| 2026-05-07 13:56 | 60.14563 | 9.92597 | 25567 ft | 340 kts | 272° |
| 2026-05-07 13:56 | 60.14582 | 9.87826 | 26239 ft | 342 kts | 272° |
| 2026-05-07 13:56 | 60.14599 | 9.83072 | 26858 ft | 345 kts | 272° |
| 2026-05-07 13:56 | 60.14650 | 9.78297 | 27482 ft | 347 kts | 276° |
| 2026-05-07 13:57 | 60.14871 | 9.73515 | 28095 ft | 349 kts | 276° |
| 2026-05-07 13:57 | 60.15086 | 9.68613 | 28724 ft | 350 kts | 276° |
| 2026-05-07 13:57 | 60.15290 | 9.63765 | 29313 ft | 353 kts | 276° |
| 2026-05-07 13:57 | 60.15494 | 9.58814 | 29856 ft | 355 kts | 276° |
| 2026-05-07 13:58 | 60.15699 | 9.53801 | 29917 ft | 369 kts | 276° |
| 2026-05-07 13:58 | 60.15909 | 9.48596 | 29930 ft | 383 kts | 276° |
| 2026-05-07 13:58 | 60.16124 | 9.43190 | 29932 ft | 387 kts | 276° |
| 2026-05-07 13:59 | 60.16544 | 9.32478 | 29953 ft | 388 kts | 275° |
| 2026-05-07 13:59 | 60.16958 | 9.21720 | 29957 ft | 388 kts | 275° |
| 2026-05-07 14:00 | 60.17363 | 9.10926 | 29957 ft | 387 kts | 275° |
| 2026-05-07 14:00 | 60.17759 | 9.00155 | 29952 ft | 388 kts | 275° |
| 2026-05-07 14:01 | 60.18146 | 8.89382 | 29969 ft | 388 kts | 275° |
| 2026-05-07 14:01 | 60.18524 | 8.78651 | 29953 ft | 386 kts | 275° |
| 2026-05-07 14:02 | 60.18891 | 8.67950 | 29951 ft | 386 kts | 275° |
| 2026-05-07 14:02 | 60.19245 | 8.57367 | 29915 ft | 373 kts | 275° |
| 2026-05-07 14:03 | 60.19583 | 8.47059 | 29913 ft | 370 kts | 275° |
| 2026-05-07 14:03 | 60.19912 | 8.36761 | 29488 ft | 372 kts | 275° |
| 2026-05-07 14:03 | 60.20073 | 8.31607 | 29086 ft | 369 kts | 274° |
| 2026-05-07 14:04 | 60.20232 | 8.26495 | 28673 ft | 366 kts | 274° |
| 2026-05-07 14:04 | 60.20386 | 8.21429 | 28282 ft | 363 kts | 274° |
| 2026-05-07 14:04 | 60.20539 | 8.16369 | 27885 ft | 362 kts | 274° |
| 2026-05-07 14:04 | 60.20689 | 8.11329 | 27488 ft | 361 kts | 274° |
| 2026-05-07 14:05 | 60.20835 | 8.06342 | 27094 ft | 359 kts | 274° |
| 2026-05-07 14:05 | 60.20980 | 8.01345 | 26703 ft | 357 kts | 274° |
| 2026-05-07 14:05 | 60.21122 | 7.96395 | 26315 ft | 356 kts | 274° |
| 2026-05-07 14:05 | 60.21261 | 7.91482 | 25922 ft | 354 kts | 274° |
| 2026-05-07 14:06 | 60.21399 | 7.86558 | 25537 ft | 353 kts | 274° |
| 2026-05-07 14:06 | 60.21533 | 7.81668 | 25138 ft | 352 kts | 274° |
| 2026-05-07 14:06 | 60.21666 | 7.76780 | 24751 ft | 350 kts | 274° |
| 2026-05-07 14:06 | 60.21796 | 7.71928 | 24358 ft | 348 kts | 274° |
| 2026-05-07 14:07 | 60.21923 | 7.67117 | 23981 ft | 347 kts | 274° |
| 2026-05-07 14:07 | 60.22049 | 7.62259 | 23618 ft | 346 kts | 274° |
| 2026-05-07 14:07 | 60.22172 | 7.57487 | 23212 ft | 345 kts | 274° |
| 2026-05-07 14:07 | 60.22293 | 7.52691 | 22840 ft | 344 kts | 274° |
| 2026-05-07 14:08 | 60.22413 | 7.47922 | 22447 ft | 343 kts | 273° |
| 2026-05-07 14:08 | 60.22528 | 7.43190 | 22047 ft | 342 kts | 273° |
| 2026-05-07 14:08 | 60.22644 | 7.38449 | 21679 ft | 339 kts | 273° |
| 2026-05-07 14:08 | 60.22757 | 7.33697 | 21285 ft | 339 kts | 272° |
| 2026-05-07 14:09 | 60.22867 | 7.29017 | 20929 ft | 338 kts | 272° |
| 2026-05-07 14:09 | 60.22976 | 7.24300 | 20549 ft | 337 kts | 272° |
| 2026-05-07 14:09 | 60.23083 | 7.19611 | 20168 ft | 335 kts | 272° |
| 2026-05-07 14:09 | 60.23189 | 7.14935 | 19803 ft | 335 kts | 272° |
| 2026-05-07 14:10 | 60.23292 | 7.10276 | 19432 ft | 335 kts | 272° |
| 2026-05-07 14:10 | 60.23392 | 7.05668 | 19062 ft | 333 kts | 272° |
| 2026-05-07 14:10 | 60.23491 | 7.01031 | 18705 ft | 333 kts | 272° |
| 2026-05-07 14:10 | 60.23589 | 6.96383 | 18334 ft | 331 kts | 272° |
| 2026-05-07 14:11 | 60.23683 | 6.91826 | 17978 ft | 330 kts | 272° |
| 2026-05-07 14:11 | 60.23778 | 6.87204 | 17606 ft | 328 kts | 272° |
| 2026-05-07 14:11 | 60.23870 | 6.82610 | 17229 ft | 328 kts | 272° |
| 2026-05-07 14:11 | 60.23959 | 6.78067 | 16871 ft | 326 kts | 272° |
| 2026-05-07 14:12 | 60.24046 | 6.73557 | 16516 ft | 326 kts | 271° |
| 2026-05-07 14:12 | 60.24133 | 6.68999 | 16153 ft | 325 kts | 271° |
| 2026-05-07 14:12 | 60.24216 | 6.64504 | 15809 ft | 324 kts | 271° |
| 2026-05-07 14:12 | 60.24314 | 6.60008 | 15451 ft | 324 kts | 276° |
| 2026-05-07 14:13 | 60.25029 | 6.55709 | 15181 ft | 325 kts | 294° |
| 2026-05-07 14:13 | 60.26011 | 6.51684 | 14838 ft | 325 kts | 294° |
| 2026-05-07 14:13 | 60.27023 | 6.47549 | 14475 ft | 324 kts | 294° |
| 2026-05-07 14:13 | 60.28014 | 6.43487 | 14116 ft | 323 kts | 295° |
| 2026-05-07 14:14 | 60.28995 | 6.39464 | 13762 ft | 323 kts | 295° |
| 2026-05-07 14:14 | 60.29979 | 6.35424 | 13413 ft | 323 kts | 295° |
| 2026-05-07 14:14 | 60.30969 | 6.31351 | 13046 ft | 321 kts | 294° |
| 2026-05-07 14:14 | 60.31944 | 6.27331 | 12700 ft | 320 kts | 294° |
| 2026-05-07 14:15 | 60.32912 | 6.23332 | 12347 ft | 319 kts | 294° |
| 2026-05-07 14:15 | 60.33873 | 6.19357 | 12003 ft | 318 kts | 294° |
| 2026-05-07 14:15 | 60.34841 | 6.15347 | 11663 ft | 316 kts | 294° |
| 2026-05-07 14:15 | 60.35793 | 6.11396 | 11344 ft | 310 kts | 294° |
| 2026-05-07 14:16 | 60.36715 | 6.07559 | 11038 ft | 304 kts | 294° |
| 2026-05-07 14:16 | 60.37626 | 6.03761 | 10707 ft | 298 kts | 294° |
| 2026-05-07 14:16 | 60.38518 | 6.00036 | 10398 ft | 291 kts | 294° |
| 2026-05-07 14:16 | 60.39385 | 5.96411 | 10070 ft | 286 kts | 294° |
| 2026-05-07 14:17 | 60.40239 | 5.92834 | 9777 ft | 280 kts | 294° |
| 2026-05-07 14:17 | 60.41084 | 5.89288 | 9471 ft | 278 kts | 294° |
| 2026-05-07 14:17 | 60.41905 | 5.85841 | 9166 ft | 272 kts | 294° |
| 2026-05-07 14:17 | 60.42721 | 5.82406 | 8861 ft | 266 kts | 294° |
| 2026-05-07 14:18 | 60.43504 | 5.79104 | 8573 ft | 259 kts | 294° |
| 2026-05-07 14:18 | 60.44269 | 5.75874 | 8293 ft | 254 kts | 294° |
| 2026-05-07 14:18 | 60.45026 | 5.72677 | 8009 ft | 248 kts | 294° |
| 2026-05-07 14:18 | 60.45759 | 5.69569 | 7750 ft | 244 kts | 294° |
| 2026-05-07 14:19 | 60.46482 | 5.66505 | 7487 ft | 243 kts | 294° |
| 2026-05-07 14:19 | 60.47214 | 5.63393 | 7231 ft | 244 kts | 294° |
| 2026-05-07 14:19 | 60.47820 | 5.60187 | 6970 ft | 243 kts | 281° |
| 2026-05-07 14:19 | 60.48141 | 5.56851 | 6747 ft | 244 kts | 279° |
| 2026-05-07 14:20 | 60.48457 | 5.53489 | 6479 ft | 244 kts | 279° |
| 2026-05-07 14:20 | 60.48774 | 5.50099 | 6213 ft | 242 kts | 279° |
| 2026-05-07 14:20 | 60.49084 | 5.46770 | 5945 ft | 241 kts | 279° |
| 2026-05-07 14:20 | 60.49391 | 5.43464 | 5680 ft | 240 kts | 279° |
| 2026-05-07 14:21 | 60.49696 | 5.40160 | 5422 ft | 239 kts | 280° |
| 2026-05-07 14:21 | 60.50001 | 5.36855 | 5166 ft | 239 kts | 280° |
| 2026-05-07 14:21 | 60.50303 | 5.33573 | 4895 ft | 238 kts | 279° |
| 2026-05-07 14:21 | 60.50606 | 5.30253 | 4635 ft | 237 kts | 278° |
| 2026-05-07 14:22 | 60.50435 | 5.27019 | 4389 ft | 231 kts | 243° |
| 2026-05-07 14:22 | 60.49698 | 5.24172 | 4138 ft | 227 kts | 239° |
| 2026-05-07 14:22 | 60.48944 | 5.21412 | 3866 ft | 223 kts | 239° |
| 2026-05-07 14:22 | 60.48195 | 5.18700 | 3615 ft | 219 kts | 238° |
| 2026-05-07 14:23 | 60.47131 | 5.16685 | 3385 ft | 207 kts | 195° |
| 2026-05-07 14:23 | 60.45762 | 5.16521 | 3230 ft | 195 kts | 173° |
| 2026-05-07 14:23 | 60.44459 | 5.16808 | 3028 ft | 182 kts | 171° |
| 2026-05-07 14:23 | 60.43265 | 5.17158 | 2825 ft | 161 kts | 170° |
| 2026-05-07 14:24 | 60.42212 | 5.17495 | 2578 ft | 148 kts | 169° |
| 2026-05-07 14:24 | 60.41230 | 5.17820 | 2355 ft | 141 kts | 169° |
| 2026-05-07 14:24 | 60.40256 | 5.18147 | 2175 ft | 141 kts | 169° |
| 2026-05-07 14:24 | 60.39292 | 5.18471 | 1989 ft | 142 kts | 169° |
| 2026-05-07 14:25 | 60.38312 | 5.18796 | 1800 ft | 143 kts | 170° |
| 2026-05-07 14:25 | 60.37338 | 5.19104 | 1625 ft | 143 kts | 170° |
| 2026-05-07 14:25 | 60.36355 | 5.19438 | 1454 ft | 143 kts | 171° |
| 2026-05-07 14:25 | 60.35374 | 5.19754 | 1230 ft | 143 kts | 170° |
| 2026-05-07 14:26 | 60.34404 | 5.20115 | 979 ft | 143 kts | 171° |
| 2026-05-07 14:26 | 60.33423 | 5.20445 | 736 ft | 143 kts | 171° |
| 2026-05-07 14:26 | 60.32448 | 5.20784 | 572 ft | 143 kts | 172° |
| 2026-05-07 14:26 | 60.31465 | 5.21108 | 411 ft | 145 kts | 173° |
| 2026-05-07 14:27 | 60.30489 | 5.21430 | 207 ft | 139 kts | 171° |
| 2026-05-07 14:27 | 60.29609 | 5.21723 | 143 ft | 107 kts | 170° |
| 2026-05-07 14:27 | 60.29091 | 5.21894 | 159 ft | 45 kts | 169° |
| 2026-05-07 14:27 | 60.28920 | 5.21990 | 160 ft | 12 kts | 124° |
| 2026-05-07 14:28 | 60.28917 | 5.22150 | 163 ft | 10 kts | 81° |
| 2026-05-07 14:28 | 60.28919 | 5.22173 | 164 ft | 0 kts | 81° |
| 2026-05-07 14:28 | 60.28920 | 5.22187 | 164 ft | 3 kts | 81° |
| 2026-05-07 14:29 | 60.28927 | 5.22275 | 166 ft | 8 kts | 80° |
| 2026-05-07 14:29 | 60.28912 | 5.22379 | 168 ft | 8 kts | 144° |
| 2026-05-07 14:29 | 60.28887 | 5.22474 | 170 ft | 7 kts | 82° |
| 2026-05-07 14:29 | 60.28892 | 5.22540 | 171 ft | 0 kts | 83° |